createdAt,value
2023-03-07T00:01:12.136Z,79.69
2023-03-07T00:05:08.122Z,79.68
2023-03-07T00:10:08.567Z,79.67
2023-03-07T00:15:08.616Z,79.66
2023-03-07T00:20:08.656Z,79.67
2023-03-07T00:25:08.698Z,79.68
2023-03-07T00:30:08.758Z,79.68
2023-03-07T00:35:08.831Z,79.67
2023-03-07T00:40:08.883Z,79.66
2023-03-07T00:45:08.948Z,79.66
2023-03-07T00:50:08.030Z,79.67
2023-03-07T00:55:08.061Z,79.67
2023-03-07T01:00:08.078Z,79.65
2023-03-07T01:05:08.132Z,79.65
2023-03-07T01:10:08.208Z,79.68
2023-03-07T01:15:08.269Z,79.66
2023-03-07T01:20:08.349Z,79.67
2023-03-07T01:25:08.432Z,79.68
2023-03-07T01:30:08.498Z,79.7
2023-03-07T01:35:08.555Z,79.7
2023-03-07T01:40:08.600Z,79.68
2023-03-07T01:45:08.706Z,79.69
2023-03-07T01:50:08.880Z,79.68
2023-03-07T01:55:07.998Z,79.69
2023-03-07T02:00:08.040Z,79.68
2023-03-07T02:05:14.258Z,79.69
2023-03-07T02:10:08.374Z,79.69
2023-03-07T02:15:08.483Z,79.7
2023-03-07T02:20:08.574Z,79.7
2023-03-07T02:25:08.650Z,79.7
2023-03-07T02:30:08.711Z,79.7
2023-03-07T02:35:08.769Z,79.67
2023-03-07T02:40:08.849Z,79.67
2023-03-07T02:45:11.140Z,79.67
2023-03-07T02:50:08.178Z,79.69
2023-03-07T02:55:08.316Z,79.7
2023-03-07T03:00:08.390Z,79.69
2023-03-07T03:05:08.438Z,79.71
2023-03-07T03:10:08.481Z,79.7
2023-03-07T03:15:08.516Z,79.71
2023-03-07T03:20:08.616Z,79.72
2023-03-07T03:25:08.740Z,79.71
2023-03-07T03:30:08.805Z,79.72
2023-03-07T03:35:08.894Z,79.73
2023-03-07T03:40:08.941Z,79.74
2023-03-07T03:45:07.997Z,79.7
2023-03-07T03:50:08.244Z,79.7
2023-03-07T03:55:08.314Z,79.72
2023-03-07T04:00:08.341Z,79.72
2023-03-07T04:05:08.369Z,79.74
2023-03-07T04:10:08.444Z,79.71
2023-03-07T04:15:08.492Z,79.72
2023-03-07T04:20:08.513Z,79.72
2023-03-07T04:25:08.551Z,79.73
2023-03-07T04:30:08.637Z,79.74
2023-03-07T04:35:08.743Z,79.72
2023-03-07T04:40:08.894Z,79.74
2023-03-07T04:45:08.969Z,79.74
2023-03-07T04:50:08.817Z,79.74
2023-03-07T04:55:08.847Z,79.73
2023-03-07T05:00:08.877Z,79.72
2023-03-07T05:05:03.032Z,79.73
2023-03-07T05:10:02.283Z,79.76
2023-03-07T05:15:02.500Z,79.78
2023-03-07T05:20:02.730Z,79.8
2023-03-07T05:25:02.921Z,79.81
2023-03-07T05:30:03.106Z,79.79
2023-03-07T05:35:02.291Z,79.84
2023-03-07T05:40:02.557Z,79.84
2023-03-07T05:45:02.708Z,79.86
2023-03-07T05:50:02.902Z,79.87
2023-03-07T05:55:03.112Z,79.87
2023-03-07T06:00:02.334Z,79.9
2023-03-07T06:05:02.544Z,79.89
2023-03-07T06:10:02.785Z,79.9
2023-03-07T06:15:02.915Z,79.9
2023-03-07T06:20:03.131Z,79.9
2023-03-07T06:25:06.480Z,79.91
2023-03-07T06:30:02.761Z,79.9
2023-03-07T06:35:02.970Z,79.91
2023-03-07T06:40:02.296Z,79.92
2023-03-07T06:45:02.663Z,79.93
2023-03-07T07:00:08.653Z,79.93
2023-03-07T07:05:08.737Z,79.95
2023-03-07T07:10:08.909Z,79.94
2023-03-07T07:15:03.237Z,79.97
2023-03-07T07:20:02.456Z,79.98
2023-03-07T07:30:03.062Z,80.0
2023-03-07T07:35:02.703Z,80.01
2023-03-07T07:40:02.914Z,80.04
2023-03-07T07:45:03.099Z,80.04
2023-03-07T07:50:04.451Z,80.07
2023-03-07T07:55:04.835Z,80.06
2023-03-07T08:00:03.080Z,80.08
2023-03-07T08:05:02.391Z,80.09
2023-03-07T08:10:05.400Z,80.11
2023-03-07T08:15:03.654Z,80.09
2023-03-07T08:20:02.856Z,80.11
2023-03-07T08:25:03.168Z,80.12
2023-03-07T08:30:02.306Z,80.12
2023-03-07T08:35:02.519Z,80.12
2023-03-07T08:40:02.771Z,80.13
2023-03-07T08:45:02.981Z,80.16
2023-03-07T08:50:02.147Z,80.14
2023-03-07T08:55:03.210Z,80.15
2023-03-07T09:00:02.771Z,80.17
2023-03-07T09:05:03.135Z,80.17
2023-03-07T09:10:02.970Z,80.2
2023-03-07T09:15:03.860Z,80.19
2023-03-07T09:20:04.066Z,80.19
2023-03-07T09:25:02.271Z,80.18
2023-03-07T09:30:02.390Z,80.2
2023-03-07T09:35:02.718Z,80.2
2023-03-07T09:40:03.017Z,80.19
2023-03-07T09:45:02.481Z,80.16
2023-03-07T09:50:03.745Z,80.15
2023-03-07T09:55:03.113Z,80.14
2023-03-07T10:00:06.393Z,80.12
2023-03-07T10:05:12.630Z,80.12
2023-03-07T10:10:03.131Z,80.09
2023-03-07T10:15:02.670Z,80.1
2023-03-07T10:20:04.500Z,80.09
2023-03-07T10:25:02.847Z,80.07
2023-03-07T10:30:03.075Z,80.03
2023-03-07T10:35:02.196Z,80.01
2023-03-07T10:40:04.883Z,79.98
2023-03-07T10:45:02.451Z,79.98
2023-03-07T10:50:03.018Z,79.94
2023-03-07T10:55:02.295Z,79.94
2023-03-07T11:00:02.708Z,79.93
2023-03-07T11:05:03.160Z,79.89
2023-03-07T11:10:02.411Z,79.91
2023-03-07T11:15:02.948Z,79.89
2023-03-07T11:20:02.303Z,79.88
2023-03-07T11:25:02.813Z,79.88
2023-03-07T11:30:03.174Z,79.91
2023-03-07T11:35:02.608Z,79.89
2023-03-07T11:40:03.240Z,79.88
2023-03-07T11:45:02.486Z,79.88
2023-03-07T11:50:12.744Z,79.85
2023-03-07T11:55:03.169Z,79.84
2023-03-07T12:00:02.624Z,79.83
2023-03-07T12:05:02.802Z,79.8
2023-03-07T12:10:02.962Z,79.79
2023-03-07T12:15:02.148Z,79.77
2023-03-07T12:20:02.408Z,79.76
2023-03-07T12:25:02.734Z,79.74
2023-03-07T12:30:13.133Z,79.72
2023-03-07T12:35:02.403Z,79.7
2023-03-07T12:40:02.752Z,79.72
2023-03-07T12:45:03.057Z,79.72
2023-03-07T12:50:03.354Z,79.73
2023-03-07T12:55:03.009Z,79.75
2023-03-07T13:00:02.499Z,79.75
2023-03-07T13:05:02.846Z,79.76
2023-03-07T13:10:04.778Z,79.76
2023-03-07T13:15:04.331Z,79.76
2023-03-07T13:20:02.768Z,79.75
2023-03-07T13:25:03.052Z,79.75
2023-03-07T13:30:05.479Z,79.76
2023-03-07T13:35:02.605Z,79.77
2023-03-07T13:40:02.861Z,79.69
2023-03-07T13:45:03.164Z,79.72
2023-03-07T13:50:02.463Z,79.77
2023-03-07T13:55:02.773Z,79.83
2023-03-07T14:00:02.956Z,79.84
2023-03-07T14:05:02.154Z,79.85
2023-03-07T14:10:12.626Z,79.83
2023-03-07T14:15:02.693Z,79.85
2023-03-07T14:20:03.033Z,79.87
2023-03-07T14:25:02.267Z,79.91
2023-03-07T14:30:02.708Z,79.96
2023-03-07T14:35:03.023Z,79.97
2023-03-07T14:40:02.301Z,79.99
2023-03-07T14:45:08.029Z,80.02
2023-03-07T14:50:02.285Z,80.04
2023-03-07T14:55:02.459Z,80.06
2023-03-07T15:00:02.868Z,80.07
2023-03-07T15:05:03.069Z,80.08
2023-03-07T15:10:02.312Z,80.08
2023-03-07T15:15:02.554Z,80.09
2023-03-07T15:20:02.971Z,80.1
2023-03-07T15:25:02.287Z,80.08
2023-03-07T15:30:02.484Z,80.08
2023-03-07T15:35:10.245Z,80.07
2023-03-07T15:40:02.471Z,80.08
2023-03-07T15:45:03.958Z,80.06
2023-03-07T15:50:02.550Z,80.06
2023-03-07T15:55:02.936Z,80.08
2023-03-07T16:00:02.166Z,80.08
2023-03-07T16:05:02.459Z,80.09
2023-03-07T16:10:02.670Z,80.08
2023-03-07T16:15:02.914Z,80.1
2023-03-07T16:20:02.564Z,80.11
2023-03-07T16:25:03.022Z,80.15
2023-03-07T16:30:02.344Z,80.15
2023-03-07T16:35:02.881Z,80.14
2023-03-07T16:40:03.331Z,80.19
2023-03-07T16:45:02.621Z,80.2
2023-03-07T16:50:02.968Z,80.19
2023-03-07T16:55:02.262Z,80.25
2023-03-07T17:00:02.739Z,80.25
2023-03-07T17:05:02.852Z,80.24
2023-03-07T17:10:03.657Z,80.26
2023-03-07T17:15:03.082Z,80.29
2023-03-07T17:20:02.367Z,80.3
2023-03-07T17:25:02.647Z,80.3
2023-03-07T17:30:02.832Z,80.29
2023-03-07T17:35:03.044Z,80.32
2023-03-07T17:40:02.247Z,80.3
2023-03-07T17:45:02.528Z,80.34
2023-03-07T17:50:02.865Z,80.32
2023-03-07T17:55:03.132Z,80.34
2023-03-07T18:00:02.445Z,80.33
2023-03-07T18:05:02.766Z,80.33
2023-03-07T18:10:08.340Z,80.34
2023-03-07T18:15:03.144Z,80.35
2023-03-07T18:20:02.556Z,80.34
2023-03-07T18:25:02.743Z,80.34
2023-03-07T18:30:02.947Z,80.34
2023-03-07T18:35:02.259Z,80.33
2023-03-07T18:40:02.664Z,80.33
2023-03-07T18:45:02.978Z,80.33
2023-03-07T18:50:02.160Z,80.34
2023-03-07T18:55:02.339Z,80.34
2023-03-07T19:00:02.715Z,80.35
2023-03-07T19:05:02.855Z,80.36
2023-03-07T19:10:03.177Z,80.35
2023-03-07T19:15:02.520Z,80.34
2023-03-07T19:20:02.864Z,80.35
2023-03-07T19:25:03.130Z,80.34
2023-03-07T19:30:02.379Z,80.33
2023-03-07T19:35:02.603Z,80.35
2023-03-07T19:40:02.716Z,80.37
2023-03-07T19:45:02.981Z,80.35
2023-03-07T19:50:02.215Z,80.37
2023-03-07T19:55:02.511Z,80.37
2023-03-07T20:00:02.917Z,80.35
2023-03-07T20:05:03.101Z,80.35
2023-03-07T20:10:02.332Z,80.37
2023-03-07T20:15:02.673Z,80.37
2023-03-07T20:20:03.031Z,80.39
2023-03-07T20:25:02.246Z,80.39
2023-03-07T20:30:02.563Z,80.38
2023-03-07T20:35:02.713Z,80.42
2023-03-07T20:40:04.713Z,80.4
2023-03-07T20:45:03.132Z,80.4
2023-03-07T20:50:02.392Z,80.43
2023-03-07T20:55:02.563Z,80.41
2023-03-07T21:00:02.985Z,80.41
2023-03-07T21:05:02.291Z,80.42
2023-03-07T21:10:02.652Z,80.42
2023-03-07T21:15:02.968Z,80.42
2023-03-07T21:20:02.217Z,80.42
2023-03-07T21:25:04.682Z,80.41
2023-03-07T21:30:02.481Z,80.42
2023-03-07T21:35:02.621Z,80.41
2023-03-07T21:40:02.910Z,80.4
2023-03-07T21:45:02.386Z,80.41
2023-03-07T21:50:02.513Z,80.39
2023-03-07T21:55:02.772Z,80.41
2023-03-07T22:00:03.150Z,80.4
2023-03-07T22:05:22.101Z,80.4
2023-03-07T22:10:08.195Z,80.4
2023-03-07T22:15:08.282Z,80.39
2023-03-07T22:20:08.356Z,80.39
2023-03-07T22:25:08.416Z,80.4
2023-03-07T22:30:08.498Z,80.37
2023-03-07T22:35:08.524Z,80.38
2023-03-07T22:40:08.575Z,80.37
2023-03-07T22:45:08.612Z,80.36
2023-03-07T22:50:08.671Z,80.37
2023-03-07T22:55:08.716Z,80.35
2023-03-07T23:00:08.794Z,80.35
2023-03-07T23:05:08.873Z,80.35
2023-03-07T23:10:08.937Z,80.34
2023-03-07T23:15:07.986Z,80.34
2023-03-07T23:20:08.043Z,80.34
2023-03-07T23:25:08.126Z,80.32
2023-03-07T23:30:08.166Z,80.34
2023-03-07T23:35:08.243Z,80.33
2023-03-07T23:40:08.355Z,80.33
2023-03-07T23:45:08.430Z,80.33
2023-03-07T23:50:08.537Z,80.33
2023-03-07T23:55:08.654Z,80.33
